Time;durP1;ratioP1;P1;durP2;ratioP2;P2;SDS_P1;SDS_P2;PMS_P1;PMS_P2;Temp;Humidity;BMP_temperature;BMP_pressure;BME280_temperature;BME280_humidity;BME280_pressure;Samples;Min_cycle;Max_cycle;Signal;HPM_P1;HPM_P2
2023/01/23 00:02:56;;;;;;;9.10;4.97;;;;;;;;;;10392311;28;20049;-80
2023/01/23 00:07:56;;;;;;;10.30;4.87;;;;;;;;;;10425141;28;20473;-78
2023/01/23 00:12:56;;;;;;;9.27;5.00;;;;;;;;;;10425002;28;20264;-75
2023/01/23 00:17:57;;;;;;;12.02;4.78;;;;;;;;;;10424653;28;20057;-79
2023/01/23 00:22:57;;;;;;;9.25;5.55;;;;;;;;;;10424295;28;20488;-76
2023/01/23 00:27:58;;;;;;;10.18;4.90;;;;;;;;;;10425284;28;20372;-77
2023/01/23 00:32:58;;;;;;;11.35;4.78;;;;;;;;;;10424772;28;20070;-80
2023/01/23 00:37:58;;;;;;;9.98;3.95;;;;;;;;;;10424406;28;20033;-75
2023/01/23 00:42:58;;;;;;;11.13;5.50;;;;;;;;;;10424817;28;20411;-76
2023/01/23 00:47:59;;;;;;;10.23;4.80;;;;;;;;;;10424664;28;20039;-79
2023/01/23 00:52:59;;;;;;;14.10;4.57;;;;;;;;;;10424222;28;20086;-71
2023/01/23 00:57:59;;;;;;;8.20;4.80;;;;;;;;;;10424327;28;20024;-76
2023/01/23 01:03:00;;;;;;;10.17;5.10;;;;;;;;;;10424707;28;20048;-76
2023/01/23 01:08:00;;;;;;;14.20;4.10;;;;;;;;;;10423866;28;20029;-72
2023/01/23 01:13:01;;;;;;;6.30;3.63;;;;;;;;;;10425611;28;20037;-76
2023/01/23 01:18:01;;;;;;;9.02;4.57;;;;;;;;;;10430403;28;20029;-76
2023/01/23 01:23:02;;;;;;;9.57;5.10;;;;;;;;;;10423675;28;20025;-78
2023/01/23 01:28:02;;;;;;;9.70;4.90;;;;;;;;;;10423296;28;20079;-73
2023/01/23 01:33:03;;;;;;;7.30;3.90;;;;;;;;;;10429368;28;20477;-75
2023/01/23 01:38:03;;;;;;;10.73;3.90;;;;;;;;;;10431368;28;20024;-75
2023/01/23 01:43:05;;;;;;;9.57;3.80;;;;;;;;;;10430707;28;20471;-78
2023/01/23 01:48:06;;;;;;;7.35;4.18;;;;;;;;;;10448970;28;20483;-76
2023/01/23 01:53:06;;;;;;;5.77;3.90;;;;;;;;;;10431259;28;20020;-76
2023/01/23 01:58:07;;;;;;;4.82;3.25;;;;;;;;;;10430619;28;20368;-73
2023/01/23 02:03:07;;;;;;;6.40;3.60;;;;;;;;;;10430195;28;20041;-77
2023/01/23 02:08:31;;;;;;;8.50;3.90;;;;;;;;;;10430806;28;20036;-72
2023/01/23 02:13:34;;;;;;;7.20;3.70;;;;;;;;;;10419418;28;20481;-73
2023/01/23 02:18:37;;;;;;;7.47;3.75;;;;;;;;;;10429732;28;20029;-76
2023/01/23 02:23:49;;;;;;;7.15;3.65;;;;;;;;;;10430213;28;20017;-76
2023/01/23 02:28:51;;;;;;;6.28;3.90;;;;;;;;;;10430473;28;20143;-79
2023/01/23 02:33:52;;;;;;;7.72;3.58;;;;;;;;;;10447327;28;20025;-76
2023/01/23 02:39:01;;;;;;;6.78;2.47;;;;;;;;;;10432606;28;20025;-78
2023/01/23 02:44:06;;;;;;;8.68;3.25;;;;;;;;;;10428353;28;20017;-76
2023/01/23 02:49:06;;;;;;;8.55;3.83;;;;;;;;;;10428745;28;20051;-73
2023/01/23 02:54:07;;;;;;;7.93;3.35;;;;;;;;;;10446622;28;20146;-74
2023/01/23 03:04:27;;;;;;;7.47;3.15;;;;;;;;;;10446641;28;20049;-76
2023/01/23 03:09:27;;;;;;;4.07;2.97;;;;;;;;;;10401488;28;20021;-76
2023/01/23 03:14:28;;;;;;;6.20;3.40;;;;;;;;;;10406463;28;20020;-74
2023/01/23 03:19:30;;;;;;;4.43;2.65;;;;;;;;;;10427090;28;20017;-76
2023/01/23 03:24:32;;;;;;;4.13;2.45;;;;;;;;;;10426741;28;20029;-74
2023/01/23 03:34:51;;;;;;;3.78;2.63;;;;;;;;;;10445436;28;20048;-76
2023/01/23 03:45:10;;;;;;;9.48;3.35;;;;;;;;;;10444956;28;20025;-72
2023/01/23 03:50:11;;;;;;;11.48;4.13;;;;;;;;;;10425890;28;20025;-76
2023/01/23 03:55:11;;;;;;;5.68;3.25;;;;;;;;;;10443549;28;20090;-77
2023/01/23 04:00:12;;;;;;;8.60;4.28;;;;;;;;;;10426314;28;20035;-76
2023/01/23 04:05:12;;;;;;;11.60;4.20;;;;;;;;;;10446743;28;20530;-76
2023/01/23 04:10:14;;;;;;;10.55;4.53;;;;;;;;;;10425678;28;20025;-77
2023/01/23 04:15:14;;;;;;;7.70;4.03;;;;;;;;;;10425680;28;20032;-77
2023/01/23 04:20:14;;;;;;;6.47;3.50;;;;;;;;;;10408596;28;20025;-72
2023/01/23 04:25:14;;;;;;;7.97;3.80;;;;;;;;;;10425114;28;20025;-76
2023/01/23 04:30:15;;;;;;;7.97;3.50;;;;;;;;;;10424949;28;20024;-76
2023/01/23 04:35:15;;;;;;;3.63;2.17;;;;;;;;;;10408758;28;20144;-73
2023/01/23 04:40:15;;;;;;;4.63;2.40;;;;;;;;;;10409068;28;20016;-76
2023/01/23 04:45:16;;;;;;;3.70;1.73;;;;;;;;;;10393226;28;20017;-75
2023/01/23 04:50:16;;;;;;;5.97;2.33;;;;;;;;;;10449906;28;20024;-74
2023/01/23 04:55:16;;;;;;;6.38;3.45;;;;;;;;;;10449506;28;20025;-77
2023/01/23 05:00:17;;;;;;;8.00;3.20;;;;;;;;;;10424673;28;20044;-74
2023/01/23 05:05:19;;;;;;;7.68;2.95;;;;;;;;;;10424816;28;20041;-73
2023/01/23 05:10:19;;;;;;;5.10;3.10;;;;;;;;;;10432511;28;20083;-76
2023/01/23 05:15:20;;;;;;;6.22;3.65;;;;;;;;;;10431699;28;20478;-75
2023/01/23 05:20:22;;;;;;;4.55;2.55;;;;;;;;;;10401084;28;20416;-78
2023/01/23 05:25:26;;;;;;;4.00;2.88;;;;;;;;;;10446961;28;20036;-76
2023/01/23 05:30:26;;;;;;;7.53;3.63;;;;;;;;;;10427299;28;20017;-74
2023/01/23 05:35:26;;;;;;;4.22;2.38;;;;;;;;;;10430410;28;20028;-75
2023/01/23 05:40:27;;;;;;;6.80;2.30;;;;;;;;;;10453249;28;20108;-76
2023/01/23 05:45:27;;;;;;;5.47;2.30;;;;;;;;;;10427836;28;20025;-75
2023/01/23 05:50:27;;;;;;;3.60;2.15;;;;;;;;;;10430493;28;20039;-70
2023/01/23 05:55:27;;;;;;;3.30;2.28;;;;;;;;;;10426714;28;20025;-77
2023/01/23 06:00:28;;;;;;;5.05;2.83;;;;;;;;;;10461036;28;20029;-73
2023/01/23 06:05:28;;;;;;;5.03;2.20;;;;;;;;;;10426390;28;20048;-75
2023/01/23 06:10:28;;;;;;;5.05;2.40;;;;;;;;;;10426546;28;20684;-72
2023/01/23 06:15:29;;;;;;;3.78;2.40;;;;;;;;;;10425246;28;20021;-74
2023/01/23 06:20:29;;;;;;;10.03;2.70;;;;;;;;;;10427944;28;20032;-77
2023/01/23 06:25:29;;;;;;;4.13;2.28;;;;;;;;;;10421624;28;20021;-74
2023/01/23 06:30:30;;;;;;;3.83;2.40;;;;;;;;;;10446316;28;20021;-76
2023/01/23 06:35:31;;;;;;;5.00;2.90;;;;;;;;;;10430258;28;20264;-76
2023/01/23 06:40:31;;;;;;;6.05;3.00;;;;;;;;;;10446685;28;20109;-77
2023/01/23 06:45:31;;;;;;;6.18;3.80;;;;;;;;;;10428084;28;20024;-75
2023/01/23 06:50:31;;;;;;;9.07;4.25;;;;;;;;;;10428413;28;20037;-75
2023/01/23 06:55:32;;;;;;;12.70;5.77;;;;;;;;;;10446395;28;20025;-72
2023/01/23 07:00:35;;;;;;;11.07;5.05;;;;;;;;;;10428807;28;20132;-73
2023/01/23 07:05:38;;;;;;;13.35;6.03;;;;;;;;;;10446789;28;20049;-76
2023/01/23 07:10:38;;;;;;;13.55;5.35;;;;;;;;;;10432393;28;20479;-76
2023/01/23 07:15:39;;;;;;;10.67;5.80;;;;;;;;;;10427511;28;20033;-76
2023/01/23 07:20:42;;;;;;;8.67;4.77;;;;;;;;;;10444568;28;20789;-75
2023/01/23 07:25:43;;;;;;;21.27;7.50;;;;;;;;;;10424648;28;20056;-77
2023/01/23 07:30:43;;;;;;;14.65;6.97;;;;;;;;;;10416768;28;20032;-78
2023/01/23 07:35:44;;;;;;;19.42;7.90;;;;;;;;;;10424807;28;20487;-78
2023/01/23 07:40:44;;;;;;;14.32;6.50;;;;;;;;;;10424545;28;20028;-79
2023/01/23 07:45:44;;;;;;;15.48;6.20;;;;;;;;;;10411148;28;20094;-74
2023/01/23 07:50:44;;;;;;;16.60;7.07;;;;;;;;;;10424316;28;20182;-79
2023/01/23 07:55:45;;;;;;;12.93;6.00;;;;;;;;;;10423171;28;20444;-78
2023/01/23 08:00:46;;;;;;;13.35;5.30;;;;;;;;;;10422951;28;20048;-75
2023/01/23 08:05:49;;;;;;;11.43;5.78;;;;;;;;;;10416163;28;20048;-76
2023/01/23 08:10:49;;;;;;;11.48;6.07;;;;;;;;;;10418538;28;20520;-79
2023/01/23 08:15:52;;;;;;;11.10;6.23;;;;;;;;;;10423377;28;20033;-77
2023/01/23 08:20:53;;;;;;;10.43;4.78;;;;;;;;;;10422643;28;20035;-76
2023/01/23 08:25:54;;;;;;;9.75;4.97;;;;;;;;;;10422794;28;20028;-79
2023/01/23 08:30:58;;;;;;;19.50;7.47;;;;;;;;;;10434103;28;20031;-74
2023/01/23 08:35:59;;;;;;;12.43;4.97;;;;;;;;;;10438404;28;20025;-75
2023/01/23 08:41:00;;;;;;;12.57;5.18;;;;;;;;;;10422260;28;20056;-72
2023/01/23 08:46:00;;;;;;;8.88;4.47;;;;;;;;;;10422647;28;20048;-77
2023/01/23 08:51:02;;;;;;;9.37;3.93;;;;;;;;;;10439691;28;20096;-76
2023/01/23 08:56:21;;;;;;;9.10;3.53;;;;;;;;;;10421764;28;20487;-71
2023/01/23 09:01:22;;;;;;;6.38;3.88;;;;;;;;;;10421616;28;20013;-73
2023/01/23 09:06:23;;;;;;;11.00;3.58;;;;;;;;;;10439798;28;20041;-77
2023/01/23 09:11:24;;;;;;;10.98;4.40;;;;;;;;;;10422233;28;20081;-73
2023/01/23 09:16:25;;;;;;;7.93;4.25;;;;;;;;;;10421404;28;20104;-77
2023/01/23 09:21:25;;;;;;;9.88;3.38;;;;;;;;;;10439300;28;20025;-75
2023/01/23 09:26:25;;;;;;;6.75;3.95;;;;;;;;;;10421172;28;20073;-78
2023/01/23 09:31:25;;;;;;;7.30;3.40;;;;;;;;;;10421149;28;20032;-77
2023/01/23 09:36:26;;;;;;;6.23;3.80;;;;;;;;;;10421277;28;20029;-72
2023/01/23 09:41:27;;;;;;;8.17;3.83;;;;;;;;;;10439326;28;20033;-76
2023/01/23 09:46:31;;;;;;;6.55;4.15;;;;;;;;;;10420737;28;20029;-77
2023/01/23 09:52:04;;;;;;;12.15;4.50;;;;;;;;;;10426538;28;20032;-79
2023/01/23 09:57:10;;;;;;;6.70;4.05;;;;;;;;;;10405221;28;20069;-77
2023/01/23 10:02:18;;;;;;;10.18;5.45;;;;;;;;;;10410723;28;20041;-74
2023/01/23 10:07:18;;;;;;;10.02;4.85;;;;;;;;;;10407002;28;20044;-76
2023/01/23 10:12:28;;;;;;;10.27;4.55;;;;;;;;;;10430038;28;20486;-74
2023/01/23 10:17:34;;;;;;;12.00;5.95;;;;;;;;;;10422047;28;20040;-75
2023/01/23 10:22:46;;;;;;;7.93;5.07;;;;;;;;;;10429808;28;20044;-78
2023/01/23 10:27:47;;;;;;;10.88;5.50;;;;;;;;;;10429379;28;20395;-71
2023/01/23 10:32:50;;;;;;;8.60;4.38;;;;;;;;;;10429482;28;20025;-76
2023/01/23 10:38:06;;;;;;;12.13;5.38;;;;;;;;;;10447506;28;20358;-78
2023/01/23 10:43:12;;;;;;;14.30;8.23;;;;;;;;;;10428886;28;20558;-77
2023/01/23 10:48:31;;;;;;;18.05;8.02;;;;;;;;;;10428468;28;20078;-73
2023/01/23 10:53:31;;;;;;;15.07;7.07;;;;;;;;;;10428813;28;20479;-76
2023/01/23 10:58:35;;;;;;;14.48;7.60;;;;;;;;;;10428247;28;20037;-74
2023/01/23 11:03:35;;;;;;;14.32;8.98;;;;;;;;;;10427875;28;20057;-77
2023/01/23 11:08:37;;;;;;;16.77;8.60;;;;;;;;;;10411352;28;20503;-79
2023/01/23 11:13:37;;;;;;;15.55;7.88;;;;;;;;;;10422421;28;20013;-77
2023/01/23 11:18:41;;;;;;;14.77;8.65;;;;;;;;;;10387292;28;20034;-78
2023/01/23 11:23:41;;;;;;;16.75;8.25;;;;;;;;;;10440677;28;20021;-80
2023/01/23 11:28:46;;;;;;;11.27;6.93;;;;;;;;;;10427037;28;20021;-76
2023/01/23 11:33:55;;;;;;;16.38;7.35;;;;;;;;;;10433103;28;20029;-76
2023/01/23 11:39:02;;;;;;;17.80;6.72;;;;;;;;;;10440092;28;20060;-71
2023/01/23 11:44:05;;;;;;;13.38;6.32;;;;;;;;;;10423705;28;20033;-74
2023/01/23 11:49:18;;;;;;;10.55;4.65;;;;;;;;;;10423815;28;20112;-76
2023/01/23 12:00:05;;;;;;;18.58;7.18;;;;;;;;;;10480494;28;20121;-76
2023/01/23 12:05:15;;;;;;;10.63;5.80;;;;;;;;;;10470892;28;20029;-72
2023/01/23 12:10:31;;;;;;;17.27;8.43;;;;;;;;;;10465995;28;20521;-76
2023/01/23 12:15:31;;;;;;;15.20;8.00;;;;;;;;;;10461573;28;20298;-75
2023/01/23 12:20:46;;;;;;;13.80;8.10;;;;;;;;;;10473166;28;20380;-76
2023/01/23 12:25:57;;;;;;;16.25;7.35;;;;;;;;;;10454737;28;20082;-78
2023/01/23 12:31:03;;;;;;;14.60;7.53;;;;;;;;;;10435511;28;20021;-73
2023/01/23 12:36:18;;;;;;;11.45;6.93;;;;;;;;;;10453431;28;20412;-76
2023/01/23 12:41:19;;;;;;;14.93;7.80;;;;;;;;;;10417519;28;20612;-76
2023/01/23 12:46:25;;;;;;;13.50;6.45;;;;;;;;;;10452680;28;20024;-74
2023/01/23 12:51:39;;;;;;;13.38;7.05;;;;;;;;;;10431946;28;20021;-76
2023/01/23 12:56:40;;;;;;;10.18;5.80;;;;;;;;;;10435889;28;20132;-80
2023/01/23 13:01:59;;;;;;;13.25;7.05;;;;;;;;;;10433091;28;20105;-78
2023/01/23 13:07:12;;;;;;;9.73;6.05;;;;;;;;;;10455544;28;20431;-73
2023/01/23 13:12:18;;;;;;;12.80;6.82;;;;;;;;;;10444974;28;20801;-76
2023/01/23 13:17:28;;;;;;;12.00;6.75;;;;;;;;;;10440867;28;20061;-76
2023/01/23 13:22:30;;;;;;;11.88;6.13;;;;;;;;;;10436393;28;20032;-78
2023/01/23 13:27:34;;;;;;;13.55;7.95;;;;;;;;;;10440061;28;20403;-74
2023/01/23 13:32:34;;;;;;;10.68;7.78;;;;;;;;;;10419729;28;20024;-75
2023/01/23 13:37:37;;;;;;;18.80;8.40;;;;;;;;;;10444038;28;20033;-78
2023/01/23 13:42:38;;;;;;;10.98;7.45;;;;;;;;;;10437812;28;20021;-72
2023/01/23 13:58:28;;;;;;;17.45;8.93;;;;;;;;;;10450880;28;20383;-73
2023/01/23 14:08:51;;;;;;;15.55;8.48;;;;;;;;;;10461905;28;20387;-78
2023/01/23 14:16:08;;;;;;;10.30;5.80;;;;;;;;;;10453129;28;20013;-73
2023/01/23 14:19:18;;;;;;;13.13;7.97;;;;;;;;;;10456138;28;20021;-77
2023/01/23 14:24:20;;;;;;;13.00;6.40;;;;;;;;;;10435973;28;20657;-77
2023/01/23 14:29:22;;;;;;;12.65;6.88;;;;;;;;;;10435637;28;20358;-77
2023/01/23 14:34:23;;;;;;;14.93;6.82;;;;;;;;;;10452604;23;20053;-77
2023/01/23 14:39:27;;;;;;;15.48;7.63;;;;;;;;;;10394863;28;20036;-75
2023/01/23 14:44:40;;;;;;;12.95;6.43;;;;;;;;;;10397798;28;20452;-72
2023/01/23 14:49:41;;;;;;;14.68;6.20;;;;;;;;;;10419311;28;20029;-77
2023/01/23 14:54:42;;;;;;;12.73;6.97;;;;;;;;;;10399254;28;20047;-78
2023/01/23 14:59:43;;;;;;;14.95;7.28;;;;;;;;;;10401560;28;20021;-74
2023/01/23 15:05:03;;;;;;;13.95;7.35;;;;;;;;;;10392965;28;20026;-76
2023/01/23 15:10:04;;;;;;;11.77;7.03;;;;;;;;;;10390954;28;20116;-78
2023/01/23 15:15:04;;;;;;;10.60;6.35;;;;;;;;;;10393822;28;20031;-72
2023/01/23 15:20:05;;;;;;;16.58;6.25;;;;;;;;;;10393878;28;20051;-74
2023/01/23 15:25:24;;;;;;;10.55;5.28;;;;;;;;;;10407783;28;20054;-72
2023/01/23 15:30:27;;;;;;;13.25;5.82;;;;;;;;;;10449708;28;20096;-72
2023/01/23 15:35:27;;;;;;;8.15;4.70;;;;;;;;;;10453858;28;20053;-75
2023/01/23 15:40:28;;;;;;;10.07;5.95;;;;;;;;;;10454216;28;20616;-74
2023/01/23 15:45:28;;;;;;;11.52;7.40;;;;;;;;;;10428417;28;20503;-71
2023/01/23 15:50:29;;;;;;;10.73;6.65;;;;;;;;;;10437045;28;20030;-74
2023/01/23 15:55:29;;;;;;;10.83;5.77;;;;;;;;;;10435223;28;20032;-78
2023/01/23 16:00:29;;;;;;;14.07;6.43;;;;;;;;;;10434545;28;20078;-72
2023/01/23 16:05:32;;;;;;;13.45;6.35;;;;;;;;;;10434479;28;20116;-72
2023/01/23 16:10:34;;;;;;;12.25;5.10;;;;;;;;;;10432721;28;20029;-75
2023/01/23 16:15:38;;;;;;;10.60;5.45;;;;;;;;;;10437162;28;20025;-73
2023/01/23 16:20:41;;;;;;;13.75;6.38;;;;;;;;;;10456993;28;20033;-73
2023/01/23 16:25:41;;;;;;;10.43;5.60;;;;;;;;;;10438015;28;20492;-75
2023/01/23 16:30:42;;;;;;;9.95;5.57;;;;;;;;;;10428288;28;20033;-74
2023/01/23 16:35:43;;;;;;;16.70;5.80;;;;;;;;;;10438946;28;20075;-77
2023/01/23 16:40:43;;;;;;;15.60;6.32;;;;;;;;;;10451992;28;20025;-74
2023/01/23 16:45:43;;;;;;;13.30;6.82;;;;;;;;;;10428413;28;20102;-74
2023/01/23 16:50:46;;;;;;;11.63;5.82;;;;;;;;;;10432583;28;20120;-77
2023/01/23 16:55:47;;;;;;;13.45;5.70;;;;;;;;;;10434212;28;20025;-72
2023/01/23 17:00:48;;;;;;;12.77;6.25;;;;;;;;;;10444491;28;20418;-72
2023/01/23 17:05:48;;;;;;;13.10;7.72;;;;;;;;;;10440837;28;20043;-71
2023/01/23 17:10:50;;;;;;;15.85;6.88;;;;;;;;;;10437893;28;20036;-76
2023/01/23 17:15:52;;;;;;;14.60;5.88;;;;;;;;;;10443696;28;20033;-72
2023/01/23 17:20:53;;;;;;;9.68;5.47;;;;;;;;;;10443430;28;20025;-72
2023/01/23 17:25:53;;;;;;;9.23;4.72;;;;;;;;;;10456618;28;20025;-79
2023/01/23 17:30:54;;;;;;;17.17;6.22;;;;;;;;;;10443569;28;20414;-72
2023/01/23 17:35:54;;;;;;;7.15;4.70;;;;;;;;;;10420275;28;20076;-77
2023/01/23 17:40:55;;;;;;;11.88;4.22;;;;;;;;;;10418459;28;20111;-75
2023/01/23 17:45:55;;;;;;;5.90;4.37;;;;;;;;;;10435794;28;20037;-73
2023/01/23 17:50:56;;;;;;;7.43;4.72;;;;;;;;;;10450317;28;20474;-75
2023/01/23 17:55:56;;;;;;;9.88;5.28;;;;;;;;;;10425018;28;20088;-75
2023/01/23 18:00:56;;;;;;;7.95;5.50;;;;;;;;;;10425135;28;20282;-74
2023/01/23 18:05:57;;;;;;;10.50;5.50;;;;;;;;;;10438802;28;20029;-73
2023/01/23 18:10:59;;;;;;;10.13;5.38;;;;;;;;;;10437233;28;20040;-78
2023/01/23 18:16:07;;;;;;;10.40;6.13;;;;;;;;;;10435929;28;20122;-76
2023/01/23 18:21:14;;;;;;;8.88;4.82;;;;;;;;;;10427753;28;20032;-73
2023/01/23 18:26:14;;;;;;;10.25;5.18;;;;;;;;;;10417616;28;20021;-73
2023/01/23 18:31:25;;;;;;;11.57;5.60;;;;;;;;;;10423217;28;20032;-71
2023/01/23 18:36:44;;;;;;;7.22;3.95;;;;;;;;;;10422330;28;20083;-76
2023/01/23 18:42:04;;;;;;;5.75;3.85;;;;;;;;;;10418690;28;20441;-78
2023/01/23 18:47:09;;;;;;;5.60;3.42;;;;;;;;;;10397387;28;20357;-77
2023/01/23 18:52:11;;;;;;;6.72;4.18;;;;;;;;;;10422009;28;20029;-75
2023/01/23 18:57:19;;;;;;;7.95;4.03;;;;;;;;;;10421809;28;20391;-73
2023/01/23 19:02:20;;;;;;;7.75;3.33;;;;;;;;;;10421274;28;20645;-75
2023/01/23 19:07:21;;;;;;;5.85;3.85;;;;;;;;;;10422849;28;20079;-75
2023/01/23 19:12:21;;;;;;;7.53;4.45;;;;;;;;;;10424538;28;20091;-76
2023/01/23 19:17:37;;;;;;;10.77;4.15;;;;;;;;;;10442900;28;20044;-72
2023/01/23 19:22:46;;;;;;;7.95;4.57;;;;;;;;;;10410523;28;20055;-71
2023/01/23 19:27:51;;;;;;;7.03;4.18;;;;;;;;;;10409547;28;20028;-72
2023/01/23 19:32:51;;;;;;;7.60;4.82;;;;;;;;;;10436507;28;20091;-75
2023/01/23 19:37:52;;;;;;;5.97;4.10;;;;;;;;;;10454918;28;20479;-77
2023/01/23 19:42:55;;;;;;;8.68;4.68;;;;;;;;;;10433441;28;20097;-72
2023/01/23 19:47:56;;;;;;;9.90;4.35;;;;;;;;;;10450278;28;20104;-76
2023/01/23 19:52:57;;;;;;;5.97;5.07;;;;;;;;;;10431248;28;20386;-73
2023/01/23 19:57:57;;;;;;;8.68;4.43;;;;;;;;;;10419011;28;20403;-72
2023/01/23 20:02:58;;;;;;;9.83;3.23;;;;;;;;;;10441582;28;20028;-73
2023/01/23 20:07:59;;;;;;;9.07;4.73;;;;;;;;;;10427258;28;20263;-76
2023/01/23 20:13:00;;;;;;;7.85;4.40;;;;;;;;;;10428937;28;20279;-75
2023/01/23 20:18:00;;;;;;;6.73;3.30;;;;;;;;;;10430312;28;20137;-75
2023/01/23 20:23:00;;;;;;;10.70;3.80;;;;;;;;;;10429036;28;20061;-77
2023/01/23 20:28:01;;;;;;;8.25;4.90;;;;;;;;;;10431545;28;20120;-75
2023/01/23 20:33:03;;;;;;;7.63;4.82;;;;;;;;;;10428567;28;20118;-72
2023/01/23 20:38:03;;;;;;;7.47;4.63;;;;;;;;;;10430038;28;20052;-73
2023/01/23 20:43:03;;;;;;;9.30;5.22;;;;;;;;;;10427701;28;20037;-75
2023/01/23 20:48:04;;;;;;;6.93;3.60;;;;;;;;;;10434918;28;20032;-77
2023/01/23 21:03:45;;;;;;;6.43;4.00;;;;;;;;;;10449286;28;20467;-76
2023/01/23 21:08:46;;;;;;;7.13;3.75;;;;;;;;;;10440435;28;20025;-73
2023/01/23 21:13:50;;;;;;;7.07;3.97;;;;;;;;;;10425618;28;20490;-72
2023/01/23 21:18:52;;;;;;;7.03;3.60;;;;;;;;;;10445639;28;20036;-76
2023/01/23 21:23:52;;;;;;;8.30;3.97;;;;;;;;;;10433011;28;20033;-78
2023/01/23 21:28:53;;;;;;;7.80;4.10;;;;;;;;;;10429869;28;20418;-73
2023/01/23 21:33:54;;;;;;;8.43;3.85;;;;;;;;;;10426355;28;20148;-78
2023/01/23 21:38:54;;;;;;;9.27;4.68;;;;;;;;;;10432760;28;20032;-78
2023/01/23 21:43:55;;;;;;;6.10;3.70;;;;;;;;;;10443324;28;20762;-76
2023/01/23 21:48:55;;;;;;;9.20;3.50;;;;;;;;;;10446505;28;20033;-75
2023/01/23 21:53:55;;;;;;;10.23;3.87;;;;;;;;;;10445437;28;20056;-76
2023/01/23 21:58:56;;;;;;;6.30;3.30;;;;;;;;;;10431484;28;20443;-79
2023/01/23 22:03:57;;;;;;;8.93;4.47;;;;;;;;;;10427662;28;20039;-70
2023/01/23 22:08:57;;;;;;;6.32;4.43;;;;;;;;;;10415759;28;20286;-72
2023/01/23 22:13:58;;;;;;;8.48;4.07;;;;;;;;;;10426725;28;20029;-78
2023/01/23 22:18:58;;;;;;;6.83;4.20;;;;;;;;;;10445164;28;20025;-73
2023/01/23 22:23:58;;;;;;;8.90;4.35;;;;;;;;;;10427822;28;20471;-73
2023/01/23 22:28:58;;;;;;;6.57;4.20;;;;;;;;;;10420217;28;20411;-76
2023/01/23 22:33:59;;;;;;;5.80;4.03;;;;;;;;;;10425571;28;20176;-73
2023/01/23 22:38:59;;;;;;;5.55;3.25;;;;;;;;;;10426327;28;20098;-72
2023/01/23 22:43:59;;;;;;;6.37;4.07;;;;;;;;;;10427063;28;20047;-74
2023/01/23 22:48:59;;;;;;;7.57;3.05;;;;;;;;;;10391833;28;20112;-77
2023/01/23 22:54:00;;;;;;;6.47;3.27;;;;;;;;;;10421097;28;20025;-78
2023/01/23 22:59:00;;;;;;;5.22;3.35;;;;;;;;;;10445519;28;20040;-78
2023/01/23 23:04:00;;;;;;;8.93;3.17;;;;;;;;;;10445045;28;20037;-76
2023/01/23 23:09:01;;;;;;;4.73;3.10;;;;;;;;;;10425755;28;20347;-75
2023/01/23 23:14:01;;;;;;;5.90;3.33;;;;;;;;;;10456654;28;20024;-73
2023/01/23 23:19:02;;;;;;;8.32;3.25;;;;;;;;;;10430647;28;20078;-72
2023/01/23 23:24:04;;;;;;;4.32;2.88;;;;;;;;;;10443607;28;20029;-71
2023/01/23 23:29:05;;;;;;;6.32;3.83;;;;;;;;;;10425942;28;20017;-76
2023/01/23 23:34:05;;;;;;;6.57;3.50;;;;;;;;;;10425525;28;20577;-71
2023/01/23 23:39:05;;;;;;;6.20;3.17;;;;;;;;;;10425674;28;20271;-71
2023/01/23 23:44:06;;;;;;;6.55;3.70;;;;;;;;;;10413518;28;20013;-73
2023/01/23 23:49:06;;;;;;;9.95;4.57;;;;;;;;;;10425486;28;20016;-72
2023/01/23 23:54:06;;;;;;;10.23;4.60;;;;;;;;;;10425716;28;20021;-77
2023/01/23 23:59:14;;;;;;;7.55;4.07;;;;;;;;;;10403454;28;20016;-72
